Santurtzi, Spain
Current Conditions -  °F | °C
As of 5:00 AM on Friday 31 Oct 2014 (Local Time) from LEBB Reporting Station
Clear Clear  
Wind Chill: 19°   Ceiling: Unl
Heat Index: 19°   Visibility: 6mi
Dew Point: 11°   Wind: 7mph
Humidity: 60%   Direction: 140°SE
Pressure: 30.09"   Gusts: NA
Location:  43.33°N, 3.03°W
Report Text: LEBB 310400Z 14006KT CAVOK 19/11 Q1019 NOSIG
Loading
Personal Weather Stations






























Interactive Weather Map
Tropical Storm Tracking
New forecast layout! Learn more

10-Day Weather Forecast

Advertisements
Track Severe Weather on mobile